sensor_id;sensor_type;location;lat;lon;timestamp;temperature;humidity
12164;DHT22;6145;50.192;10.064;2023-12-22T08:44:27;4.90;99.90
12164;DHT22;6145;50.192;10.064;2023-12-22T08:46:54;4.90;99.90
12164;DHT22;6145;50.192;10.064;2023-12-22T08:49:21;5.00;99.90
12164;DHT22;6145;50.192;10.064;2023-12-22T08:51:48;5.00;99.90
12164;DHT22;6145;50.192;10.064;2023-12-22T08:54:14;5.00;99.90
12164;DHT22;6145;50.192;10.064;2023-12-22T08:56:41;5.10;99.90
12164;DHT22;6145;50.192;10.064;2023-12-22T08:59:08;5.10;99.90
12164;DHT22;6145;50.192;10.064;2023-12-22T09:01:37;5.20;99.90
12164;DHT22;6145;50.192;10.064;2023-12-22T09:04:04;5.20;99.90
12164;DHT22;6145;50.192;10.064;2023-12-22T09:06:30;5.20;99.90
12164;DHT22;6145;50.192;10.064;2023-12-22T09:08:57;5.80;99.90
12164;DHT22;6145;50.192;10.064;2023-12-22T09:11:24;5.30;99.90
12164;DHT22;6145;50.192;10.064;2023-12-22T09:13:51;5.30;99.90
12164;DHT22;6145;50.192;10.064;2023-12-22T09:16:21;5.30;99.90
12164;DHT22;6145;50.192;10.064;2023-12-22T09:18:49;5.40;99.90
12164;DHT22;6145;50.192;10.064;2023-12-22T09:21:16;5.80;99.90
12164;DHT22;6145;50.192;10.064;2023-12-22T09:23:43;5.40;99.90
12164;DHT22;6145;50.192;10.064;2023-12-22T09:26:13;5.40;99.90
12164;DHT22;6145;50.192;10.064;2023-12-22T09:28:39;5.50;99.90
12164;DHT22;6145;50.192;10.064;2023-12-22T09:31:06;5.50;99.90
12164;DHT22;6145;50.192;10.064;2023-12-22T09:33:33;5.50;99.90
12164;DHT22;6145;50.192;10.064;2023-12-22T09:36:01;6.20;99.90
12164;DHT22;6145;50.192;10.064;2023-12-22T09:38:28;5.60;99.90
12164;DHT22;6145;50.192;10.064;2023-12-22T15:47:46;7.20;99.90
12164;DHT22;6145;50.192;10.064;2023-12-22T15:50:14;7.20;99.90
12164;DHT22;6145;50.192;10.064;2023-12-22T15:52:41;7.10;99.90
12164;DHT22;6145;50.192;10.064;2023-12-22T15:55:08;7.20;99.90
12164;DHT22;6145;50.192;10.064;2023-12-22T15:57:37;7.30;99.90
12164;DHT22;6145;50.192;10.064;2023-12-22T16:00:07;8.20;99.90
12164;DHT22;6145;50.192;10.064;2023-12-22T16:02:34;7.20;99.90
12164;DHT22;6145;50.192;10.064;2023-12-22T16:05:06;7.30;99.90
12164;DHT22;6145;50.192;10.064;2023-12-22T16:07:34;7.30;99.90
12164;DHT22;6145;50.192;10.064;2023-12-22T16:10:02;7.30;99.90
12164;DHT22;6145;50.192;10.064;2023-12-22T16:12:29;7.30;99.90
12164;DHT22;6145;50.192;10.064;2023-12-22T16:14:56;7.30;99.90
12164;DHT22;6145;50.192;10.064;2023-12-22T16:17:24;7.30;99.90
12164;DHT22;6145;50.192;10.064;2023-12-22T16:19:51;7.30;99.90
12164;DHT22;6145;50.192;10.064;2023-12-22T16:22:20;7.40;99.90
12164;DHT22;6145;50.192;10.064;2023-12-22T16:24:47;7.30;99.90
12164;DHT22;6145;50.192;10.064;2023-12-22T16:27:14;7.40;99.90
12164;DHT22;6145;50.192;10.064;2023-12-22T16:29:42;7.50;99.90
12164;DHT22;6145;50.192;10.064;2023-12-22T16:32:12;7.50;99.90
12164;DHT22;6145;50.192;10.064;2023-12-22T16:34:41;7.40;99.90
12164;DHT22;6145;50.192;10.064;2023-12-22T16:37:09;7.50;99.90
12164;DHT22;6145;50.192;10.064;2023-12-22T16:39:48;7.50;99.90
12164;DHT22;6145;50.192;10.064;2023-12-22T16:42:15;8.10;99.90
12164;DHT22;6145;50.192;10.064;2023-12-22T16:44:43;7.50;99.90
12164;DHT22;6145;50.192;10.064;2023-12-22T16:47:10;9.70;99.90
12164;DHT22;6145;50.192;10.064;2023-12-22T16:49:37;7.80;99.90
12164;DHT22;6145;50.192;10.064;2023-12-22T16:52:06;9.10;99.90
12164;DHT22;6145;50.192;10.064;2023-12-22T16:54:33;7.50;99.90
12164;DHT22;6145;50.192;10.064;2023-12-22T16:57:02;7.60;99.90
12164;DHT22;6145;50.192;10.064;2023-12-22T16:59:29;7.50;99.90
12164;DHT22;6145;50.192;10.064;2023-12-22T17:01:56;7.60;99.90
12164;DHT22;6145;50.192;10.064;2023-12-22T17:04:23;7.60;99.90
12164;DHT22;6145;50.192;10.064;2023-12-22T17:06:52;7.70;99.90
12164;DHT22;6145;50.192;10.064;2023-12-22T17:09:19;7.60;99.90
12164;DHT22;6145;50.192;10.064;2023-12-22T17:11:47;7.60;99.90
12164;DHT22;6145;50.192;10.064;2023-12-22T17:14:15;7.60;99.90
12164;DHT22;6145;50.192;10.064;2023-12-22T17:16:42;7.60;99.90
12164;DHT22;6145;50.192;10.064;2023-12-22T17:19:08;7.70;99.90
12164;DHT22;6145;50.192;10.064;2023-12-22T17:21:35;7.70;99.90
12164;DHT22;6145;50.192;10.064;2023-12-22T17:24:05;8.50;99.90
12164;DHT22;6145;50.192;10.064;2023-12-22T17:26:32;7.70;99.90
12164;DHT22;6145;50.192;10.064;2023-12-22T17:28:59;7.70;99.90
12164;DHT22;6145;50.192;10.064;2023-12-22T17:31:27;7.70;99.90
12164;DHT22;6145;50.192;10.064;2023-12-22T17:33:54;7.80;99.90
12164;DHT22;6145;50.192;10.064;2023-12-22T17:36:23;7.80;99.90
12164;DHT22;6145;50.192;10.064;2023-12-22T17:38:50;7.80;99.90
12164;DHT22;6145;50.192;10.064;2023-12-22T17:41:17;8.20;99.90
12164;DHT22;6145;50.192;10.064;2023-12-22T17:43:44;8.40;99.90
12164;DHT22;6145;50.192;10.064;2023-12-22T17:46:10;7.80;99.90
12164;DHT22;6145;50.192;10.064;2023-12-22T17:48:39;7.80;99.90
12164;DHT22;6145;50.192;10.064;2023-12-22T17:51:05;7.90;99.90
12164;DHT22;6145;50.192;10.064;2023-12-22T17:53:32;7.80;99.90
12164;DHT22;6145;50.192;10.064;2023-12-22T17:55:59;7.90;99.90
12164;DHT22;6145;50.192;10.064;2023-12-22T17:58:26;7.90;99.90
12164;DHT22;6145;50.192;10.064;2023-12-22T18:00:53;7.90;99.90
12164;DHT22;6145;50.192;10.064;2023-12-22T18:03:20;8.00;99.90
12164;DHT22;6145;50.192;10.064;2023-12-22T18:05:49;7.90;99.90
12164;DHT22;6145;50.192;10.064;2023-12-22T18:08:16;8.00;99.90
12164;DHT22;6145;50.192;10.064;2023-12-22T18:10:43;8.40;99.90
12164;DHT22;6145;50.192;10.064;2023-12-22T18:13:09;8.00;99.90
12164;DHT22;6145;50.192;10.064;2023-12-22T18:15:36;8.00;99.90
12164;DHT22;6145;50.192;10.064;2023-12-22T18:18:04;8.00;99.90
12164;DHT22;6145;50.192;10.064;2023-12-22T18:20:31;8.00;99.90
12164;DHT22;6145;50.192;10.064;2023-12-22T18:22:59;8.00;99.90
12164;DHT22;6145;50.192;10.064;2023-12-22T18:25:26;8.00;99.90
12164;DHT22;6145;50.192;10.064;2023-12-22T18:27:53;8.00;99.90
12164;DHT22;6145;50.192;10.064;2023-12-22T18:30:20;8.10;99.90
12164;DHT22;6145;50.192;10.064;2023-12-22T18:32:47;8.70;99.90
12164;DHT22;6145;50.192;10.064;2023-12-22T18:35:14;8.00;99.90
12164;DHT22;6145;50.192;10.064;2023-12-22T18:37:41;8.00;99.90
12164;DHT22;6145;50.192;10.064;2023-12-22T18:40:10;8.10;99.90
12164;DHT22;6145;50.192;10.064;2023-12-22T18:42:38;8.10;99.90
12164;DHT22;6145;50.192;10.064;2023-12-22T18:45:06;9.10;99.90
12164;DHT22;6145;50.192;10.064;2023-12-22T18:47:33;8.00;99.90
12164;DHT22;6145;50.192;10.064;2023-12-22T18:50:00;8.10;99.90
12164;DHT22;6145;50.192;10.064;2023-12-22T18:52:27;8.10;99.90
12164;DHT22;6145;50.192;10.064;2023-12-22T18:54:55;8.10;99.90
12164;DHT22;6145;50.192;10.064;2023-12-22T18:57:24;8.10;99.90
12164;DHT22;6145;50.192;10.064;2023-12-22T18:59:51;8.30;99.90
12164;DHT22;6145;50.192;10.064;2023-12-22T19:02:21;8.20;99.90
12164;DHT22;6145;50.192;10.064;2023-12-22T19:04:48;8.10;99.90
12164;DHT22;6145;50.192;10.064;2023-12-22T19:07:18;8.20;99.90
12164;DHT22;6145;50.192;10.064;2023-12-22T19:09:45;8.10;99.90
12164;DHT22;6145;50.192;10.064;2023-12-22T19:12:12;8.20;99.90
12164;DHT22;6145;50.192;10.064;2023-12-22T19:14:40;8.20;99.90
12164;DHT22;6145;50.192;10.064;2023-12-22T19:17:08;8.10;99.90
12164;DHT22;6145;50.192;10.064;2023-12-22T19:19:35;8.20;99.90
12164;DHT22;6145;50.192;10.064;2023-12-22T19:22:02;8.20;99.90
12164;DHT22;6145;50.192;10.064;2023-12-22T19:24:30;8.20;99.90
12164;DHT22;6145;50.192;10.064;2023-12-22T19:26:57;8.20;99.90
12164;DHT22;6145;50.192;10.064;2023-12-22T19:29:24;8.20;99.90
12164;DHT22;6145;50.192;10.064;2023-12-22T19:31:53;8.10;99.90
12164;DHT22;6145;50.192;10.064;2023-12-22T19:34:20;8.20;99.90
12164;DHT22;6145;50.192;10.064;2023-12-22T19:36:47;8.20;99.90
12164;DHT22;6145;50.192;10.064;2023-12-22T19:39:14;8.20;99.90
12164;DHT22;6145;50.192;10.064;2023-12-22T19:41:41;8.20;99.90
12164;DHT22;6145;50.192;10.064;2023-12-22T19:44:08;8.20;99.90
12164;DHT22;6145;50.192;10.064;2023-12-22T19:46:35;8.20;99.90
12164;DHT22;6145;50.192;10.064;2023-12-22T19:49:03;8.90;99.90
12164;DHT22;6145;50.192;10.064;2023-12-22T19:51:30;8.20;99.90
12164;DHT22;6145;50.192;10.064;2023-12-22T19:53:56;8.30;99.90
12164;DHT22;6145;50.192;10.064;2023-12-22T19:56:23;8.20;99.90
12164;DHT22;6145;50.192;10.064;2023-12-22T19:58:50;8.10;99.90
12164;DHT22;6145;50.192;10.064;2023-12-22T20:01:17;8.20;99.90
12164;DHT22;6145;50.192;10.064;2023-12-22T20:03:44;8.10;99.90
12164;DHT22;6145;50.192;10.064;2023-12-22T20:06:12;8.20;99.90
12164;DHT22;6145;50.192;10.064;2023-12-22T20:08:39;8.20;99.90
12164;DHT22;6145;50.192;10.064;2023-12-22T20:11:08;8.20;99.90
12164;DHT22;6145;50.192;10.064;2023-12-22T20:13:36;8.20;99.90
12164;DHT22;6145;50.192;10.064;2023-12-22T20:16:03;8.50;99.90
12164;DHT22;6145;50.192;10.064;2023-12-22T20:18:32;8.20;99.90
12164;DHT22;6145;50.192;10.064;2023-12-22T20:20:59;8.20;99.90
12164;DHT22;6145;50.192;10.064;2023-12-22T20:23:27;8.10;99.90
12164;DHT22;6145;50.192;10.064;2023-12-22T20:25:54;8.10;99.90
12164;DHT22;6145;50.192;10.064;2023-12-22T20:28:21;8.90;99.90
12164;DHT22;6145;50.192;10.064;2023-12-22T20:30:47;8.00;99.90
12164;DHT22;6145;50.192;10.064;2023-12-22T20:33:14;8.00;99.90
12164;DHT22;6145;50.192;10.064;2023-12-22T20:35:41;8.00;99.90
12164;DHT22;6145;50.192;10.064;2023-12-22T20:38:08;8.00;99.90
12164;DHT22;6145;50.192;10.064;2023-12-22T20:40:36;8.00;99.90
12164;DHT22;6145;50.192;10.064;2023-12-22T20:43:03;8.20;99.90
12164;DHT22;6145;50.192;10.064;2023-12-22T20:45:30;8.00;99.90
12164;DHT22;6145;50.192;10.064;2023-12-22T20:47:57;8.70;99.90
12164;DHT22;6145;50.192;10.064;2023-12-22T20:50:24;7.90;99.90
12164;DHT22;6145;50.192;10.064;2023-12-22T20:52:50;9.00;99.90
12164;DHT22;6145;50.192;10.064;2023-12-22T20:55:20;7.90;99.90
12164;DHT22;6145;50.192;10.064;2023-12-22T20:57:49;8.00;99.90
12164;DHT22;6145;50.192;10.064;2023-12-22T21:00:16;7.90;99.90
12164;DHT22;6145;50.192;10.064;2023-12-22T21:02:44;8.00;99.90
12164;DHT22;6145;50.192;10.064;2023-12-22T21:05:11;8.10;99.90
12164;DHT22;6145;50.192;10.064;2023-12-22T21:07:38;8.00;99.90
12164;DHT22;6145;50.192;10.064;2023-12-22T21:10:09;8.00;99.90
12164;DHT22;6145;50.192;10.064;2023-12-22T21:12:36;8.00;99.90
12164;DHT22;6145;50.192;10.064;2023-12-22T21:15:05;8.00;99.90
12164;DHT22;6145;50.192;10.064;2023-12-22T21:17:42;8.00;99.90
12164;DHT22;6145;50.192;10.064;2023-12-22T21:20:12;8.30;99.90
12164;DHT22;6145;50.192;10.064;2023-12-22T21:22:40;8.00;99.90
12164;DHT22;6145;50.192;10.064;2023-12-22T21:25:08;8.00;99.90
12164;DHT22;6145;50.192;10.064;2023-12-22T21:27:35;8.00;99.90
12164;DHT22;6145;50.192;10.064;2023-12-22T21:30:03;8.00;99.90
12164;DHT22;6145;50.192;10.064;2023-12-22T21:32:31;7.90;99.90
12164;DHT22;6145;50.192;10.064;2023-12-22T21:34:58;7.90;99.90
12164;DHT22;6145;50.192;10.064;2023-12-22T21:37:25;7.90;99.90
12164;DHT22;6145;50.192;10.064;2023-12-22T21:39:51;7.90;99.90
